Etusivu
METAR-TAF:

METAR-TAF

Lentoasemat :

Madison, Wisconsin, Yhdysvallat

Leveyspiiri: 43-08-26N, Pituuspiiri: 089-20-43W, korkeus merenpinnasta: 262 m

Tämänhetkinen sää

Tämä raportti tehtiin 30 minuuttia sitten, kello 09.53 UTC
tyyntä
Lämpötila -1°C
Kosteus 80%
Ilmanpaine 1013 hPa
Näkyvyys: 16.1 km
selkeää

METAR: KMSN 200953Z AUTO 00000KT 10SM CLR M01/M04 A2990 RMK AO2 SLP130 T10061044

Aika: 05:23 (10:23 UTC)

Sääennuste

Tämä raportti tehtiin 1 tunti ja 47 minuuttia sitten, kello 08.36 UTC
Ennuste voimassa 20. päivästä klo 09 UTC - 21. päivään klo 06 UTC
Tuuli 3 kn eri suunnista
Näkyvyys: 10 km
selkeää
From 20. päivästä klo 1500 UTC
Tuuli 6 kn pohjoisesta
Näkyvyys: 10 km
selkeää
From 21. päivästä klo 0000 UTC
Tuuli 3 kn eri suunnista
Näkyvyys: 10 km
selkeää

TAF: KMSN 200836Z 2009/2106 VRB03KT P6SM SKC FM201500 36006KT P6SM SKC FM210000 VRB03KT P6SM SKC

Säähavainnot ja -ennusteet yli 4000 lentoasemalta (METAR- ja TAF-raportit).

Käytössä olevat sääasemat on merkitty karttaan keltaisilla ja punaisilla pisteillä.

Aseta hiiri pisteen päälle nähdäksesi sääaseman nimen.

Klikkaa sitten nähdäksesi säähavainnot ja -ennusteet.

Kartan vaihtaminen: klikkaa mustalla rastilla varustettuja vihreitä pisteitä, niin voit zoomata sisään; viivalla varustettua vihreää pistettä, niin voit zoomata ulos tai vihreitä nuolia, niin pääset viereisille kartoille.


METAR-TAF: